createdAt,value
2018-01-10T00:00:42.769Z,1005.1
2018-01-10T00:01:45.177Z,1005.1
2018-01-10T00:02:47.588Z,1005.1
2018-01-10T00:03:50.292Z,1005.1
2018-01-10T00:04:52.692Z,1005.1
2018-01-10T00:05:55.096Z,1005.1
2018-01-10T00:06:57.519Z,1005.1
2018-01-10T00:07:59.914Z,1005
2018-01-10T00:09:02.326Z,1005
2018-01-10T00:10:05.518Z,1005
2018-01-10T00:11:08.207Z,1004.9
2018-01-10T00:12:10.618Z,1005
2018-01-10T00:13:13.029Z,1005
2018-01-10T00:14:15.432Z,1004.9
2018-01-10T00:15:17.853Z,1004.9
2018-01-10T00:16:20.273Z,1004.9
2018-01-10T00:17:22.687Z,1004.9
2018-01-10T00:18:25.106Z,1004.9
2018-01-10T00:19:27.515Z,1004.9
2018-01-10T00:20:29.919Z,1004.9
2018-01-10T00:21:32.614Z,1004.9
2018-01-10T00:22:35.026Z,1005
2018-01-10T00:23:37.435Z,1005
2018-01-10T00:24:39.843Z,1005
2018-01-10T00:25:42.260Z,1004.9
2018-01-10T00:26:44.949Z,1005
2018-01-10T00:27:47.362Z,1005
2018-01-10T00:28:49.891Z,1005
2018-01-10T00:29:52.299Z,1004.9
2018-01-10T00:30:54.702Z,1005
2018-01-10T00:31:57.263Z,1005
2018-01-10T00:32:59.950Z,1005
2018-01-10T00:34:02.381Z,1005
2018-01-10T00:35:04.946Z,1005
2018-01-10T00:36:07.359Z,1005
2018-01-10T00:37:10.043Z,1004.9
2018-01-10T00:38:12.452Z,1005
2018-01-10T00:39:14.852Z,1005
2018-01-10T00:40:17.256Z,1004.9
2018-01-10T00:41:19.682Z,1005
2018-01-10T00:42:22.389Z,1005
2018-01-10T00:43:24.801Z,1005
2018-01-10T00:44:27.216Z,1005
2018-01-10T00:45:29.916Z,1004.9
2018-01-10T00:46:32.335Z,1004.9
2018-01-10T00:47:34.743Z,1004.9
2018-01-10T00:48:37.142Z,1004.9
2018-01-10T00:49:39.549Z,1005
2018-01-10T00:50:41.989Z,1005
2018-01-10T00:51:44.368Z,1005.1
2018-01-10T00:52:47.059Z,1005.1
2018-01-10T00:53:49.478Z,1005.1
2018-01-10T00:54:51.897Z,1005.1
2018-01-10T00:55:54.296Z,1005
2018-01-10T00:56:56.710Z,1005
2018-01-10T00:57:59.415Z,1005
2018-01-10T00:59:02.116Z,1005.1
2018-01-10T01:00:04.519Z,1005.1
2018-01-10T01:01:06.929Z,1005
2018-01-10T01:02:09.548Z,1004.9
2018-01-10T01:03:12.265Z,1004.8
2018-01-10T01:04:14.676Z,1004.8
2018-01-10T01:05:17.076Z,1004.8
2018-01-10T01:06:19.494Z,1005
2018-01-10T01:07:22.172Z,1005.1
2018-01-10T01:08:24.581Z,1005.2
2018-01-10T01:09:26.996Z,1005.2
2018-01-10T01:10:29.409Z,1005.1
2018-01-10T01:11:31.823Z,1005
2018-01-10T01:12:34.244Z,1005
2018-01-10T01:13:36.643Z,1005
2018-01-10T01:14:39.066Z,1005
2018-01-10T01:15:41.595Z,1005
2018-01-10T01:16:43.999Z,1005
2018-01-10T01:17:46.411Z,1005.1
2018-01-10T01:18:48.847Z,1005.1
2018-01-10T01:19:51.252Z,1005.1
2018-01-10T01:20:53.988Z,1005.1
2018-01-10T01:21:56.807Z,1005.1
2018-01-10T01:22:59.223Z,1005.1
2018-01-10T01:24:01.627Z,1005.1
2018-01-10T01:25:04.035Z,1005
2018-01-10T01:26:06.531Z,1005
2018-01-10T01:27:08.936Z,1004.9
2018-01-10T01:28:11.338Z,1005
2018-01-10T01:29:13.758Z,1004.9
2018-01-10T01:30:16.451Z,1005
2018-01-10T01:31:18.848Z,1005
2018-01-10T01:32:21.539Z,1005
2018-01-10T01:33:24.244Z,1005
2018-01-10T01:34:26.934Z,1005
2018-01-10T01:35:29.355Z,1005
2018-01-10T01:36:31.760Z,1005
2018-01-10T01:37:34.170Z,1005.1
2018-01-10T01:38:36.594Z,1005.1
2018-01-10T01:39:39.018Z,1005.1
2018-01-10T01:40:41.418Z,1005.2
2018-01-10T01:41:43.832Z,1005.2
2018-01-10T01:42:46.248Z,1005.2
2018-01-10T01:43:48.656Z,1005.1
2018-01-10T01:44:51.065Z,1005
2018-01-10T01:45:53.646Z,1005
2018-01-10T01:46:56.052Z,1005
2018-01-10T01:47:58.477Z,1005
2018-01-10T01:49:01.009Z,1005
2018-01-10T01:50:03.425Z,1005
2018-01-10T01:51:05.841Z,1004.9
2018-01-10T01:52:08.257Z,1005
2018-01-10T01:53:10.653Z,1004.9
2018-01-10T01:54:13.066Z,1004.9
2018-01-10T01:55:15.599Z,1004.9
2018-01-10T01:56:18.006Z,1005
2018-01-10T01:57:20.704Z,1005
2018-01-10T01:58:23.444Z,1005
2018-01-10T01:59:25.851Z,1005
2018-01-10T02:00:28.268Z,1005
2018-01-10T02:01:30.673Z,1004.9
2018-01-10T02:02:33.089Z,1004.9
2018-01-10T02:03:35.502Z,1004.9
2018-01-10T02:04:37.917Z,1004.8
2018-01-10T02:05:40.330Z,1004.8
2018-01-10T02:06:42.752Z,1004.8
2018-01-10T02:07:45.157Z,1004.8
2018-01-10T02:08:47.569Z,1004.7
2018-01-10T02:09:49.983Z,1004.7
2018-01-10T02:10:52.960Z,1004.7
2018-01-10T02:11:55.370Z,1004.8
2018-01-10T02:12:57.790Z,1004.8
2018-01-10T02:14:00.188Z,1004.8
2018-01-10T02:15:02.605Z,1004.8
2018-01-10T02:16:05.009Z,1004.7
2018-01-10T02:17:07.426Z,1004.8
2018-01-10T02:18:10.121Z,1004.7
2018-01-10T02:19:12.540Z,1004.7
2018-01-10T02:20:14.950Z,1004.6
2018-01-10T02:21:17.361Z,1004.5
2018-01-10T02:22:19.792Z,1004.6
2018-01-10T02:23:22.481Z,1004.6
2018-01-10T02:24:24.886Z,1004.5
2018-01-10T02:25:27.680Z,1004.6
2018-01-10T02:26:30.109Z,1004.7
2018-01-10T02:27:32.515Z,1004.7
2018-01-10T02:28:35.102Z,1004.7
2018-01-10T02:29:37.511Z,1004.7
2018-01-10T02:30:39.920Z,1004.8
2018-01-10T02:31:42.335Z,1004.7
2018-01-10T02:32:44.756Z,1004.8
2018-01-10T02:33:47.157Z,1004.8
2018-01-10T02:34:49.578Z,1004.7
2018-01-10T02:35:51.987Z,1004.7
2018-01-10T02:36:54.773Z,1004.7
2018-01-10T02:37:57.471Z,1004.7
2018-01-10T02:38:59.877Z,1004.6
2018-01-10T02:40:02.359Z,1004.7
2018-01-10T02:41:04.804Z,1004.7
2018-01-10T02:42:07.210Z,1004.7
2018-01-10T02:43:09.622Z,1004.6
2018-01-10T02:44:12.043Z,1004.7
2018-01-10T02:45:14.450Z,1004.7
2018-01-10T02:46:16.856Z,1004.7
2018-01-10T02:47:19.961Z,1004.6
2018-01-10T02:48:22.368Z,1004.6
2018-01-10T02:49:25.052Z,1004.5
2018-01-10T02:50:27.459Z,1004.5
2018-01-10T02:51:29.865Z,1004.4
2018-01-10T02:52:32.305Z,1004.3
2018-01-10T02:53:34.991Z,1004.4
2018-01-10T02:54:37.415Z,1004.4
2018-01-10T02:55:39.824Z,1004.4
2018-01-10T02:56:42.254Z,1004.4
2018-01-10T02:57:44.663Z,1004.5
2018-01-10T02:58:47.111Z,1004.5
2018-01-10T02:59:49.522Z,1004.5
2018-01-10T03:00:52.388Z,1004.5
2018-01-10T03:01:55.128Z,1004.4
2018-01-10T03:02:57.584Z,1004.4
2018-01-10T03:04:01.079Z,1004.4
2018-01-10T03:05:03.662Z,1004.4
2018-01-10T03:06:06.842Z,1004.4
2018-01-10T03:07:09.411Z,1004.5
2018-01-10T03:08:12.049Z,1004.5
2018-01-10T03:09:14.610Z,1004.5
2018-01-10T03:10:17.158Z,1004.6
2018-01-10T03:11:19.717Z,1004.6
2018-01-10T03:12:22.634Z,1004.6
2018-01-10T03:13:25.482Z,1004.6
2018-01-10T03:14:28.047Z,1004.6
2018-01-10T03:15:30.710Z,1004.6
2018-01-10T03:16:33.115Z,1004.6
2018-01-10T03:17:35.646Z,1004.6
2018-01-10T03:18:38.052Z,1004.6
2018-01-10T03:19:40.471Z,1004.6
2018-01-10T03:20:42.880Z,1004.6
2018-01-10T03:21:45.304Z,1004.6
2018-01-10T03:22:47.713Z,1004.6
2018-01-10T03:23:50.115Z,1004.6
2018-01-10T03:24:52.530Z,1004.6
2018-01-10T03:25:54.972Z,1004.5
2018-01-10T03:26:57.456Z,1004.5
2018-01-10T03:28:00.048Z,1004.5
2018-01-10T03:29:02.495Z,1004.4
2018-01-10T03:30:04.951Z,1004.4
2018-01-10T03:31:07.367Z,1004.4
2018-01-10T03:32:10.078Z,1004.4
2018-01-10T03:33:12.474Z,1004.4
2018-01-10T03:34:14.895Z,1004.4
2018-01-10T03:35:17.297Z,1004.3
2018-01-10T03:36:19.983Z,1004.3
2018-01-10T03:37:22.408Z,1004.3
2018-01-10T03:38:25.097Z,1004.4
2018-01-10T03:39:27.514Z,1004.3
2018-01-10T03:40:29.923Z,1004.4
2018-01-10T03:41:32.333Z,1004.3
2018-01-10T03:42:34.735Z,1004.4
2018-01-10T03:43:37.148Z,1004.4
2018-01-10T03:44:39.547Z,1004.4
2018-01-10T03:45:41.984Z,1004.3
2018-01-10T03:46:44.430Z,1004.4
2018-01-10T03:47:47.228Z,1004.3
2018-01-10T03:48:49.767Z,1004.3
2018-01-10T03:49:52.354Z,1004.4
2018-01-10T03:50:54.804Z,1004.4
2018-01-10T03:51:57.218Z,1004.4
2018-01-10T03:52:59.908Z,1004.4
2018-01-10T03:54:02.318Z,1004.4
2018-01-10T03:55:05.016Z,1004.3
2018-01-10T03:56:07.425Z,1004.3
2018-01-10T03:57:10.108Z,1004.3
2018-01-10T03:58:12.522Z,1004.3
2018-01-10T03:59:14.937Z,1004.3
2018-01-10T04:00:17.350Z,1004.4
2018-01-10T04:01:19.759Z,1004.4
2018-01-10T04:02:22.174Z,1004.5
2018-01-10T04:03:24.579Z,1004.5
2018-01-10T04:04:26.989Z,1004.4
2018-01-10T04:05:29.409Z,1004.5
2018-01-10T04:06:31.816Z,1004.5
2018-01-10T04:07:34.242Z,1004.5
2018-01-10T04:08:36.671Z,1004.5
2018-01-10T04:09:39.122Z,1004.4
2018-01-10T04:10:41.653Z,1004.4
2018-01-10T04:11:44.471Z,1004.3
2018-01-10T04:12:47.056Z,1004.4
2018-01-10T04:13:49.500Z,1004.3
2018-01-10T04:14:51.886Z,1004.4
2018-01-10T04:15:54.286Z,1004.3
2018-01-10T04:16:56.699Z,1004.3
2018-01-10T04:17:59.119Z,1004.3
2018-01-10T04:19:01.810Z,1004.3
2018-01-10T04:20:04.220Z,1004.3
2018-01-10T04:21:06.918Z,1004.4
2018-01-10T04:22:09.322Z,1004.4
2018-01-10T04:23:11.732Z,1004.4
2018-01-10T04:24:14.419Z,1004.4
2018-01-10T04:25:16.829Z,1004.4
2018-01-10T04:26:19.238Z,1004.4
2018-01-10T04:27:21.640Z,1004.4
2018-01-10T04:28:24.336Z,1004.4
2018-01-10T04:29:26.776Z,1004.4
2018-01-10T04:30:29.179Z,1004.4
2018-01-10T04:31:31.758Z,1004.4
2018-01-10T04:32:34.224Z,1004.4
2018-01-10T04:33:36.772Z,1004.4
2018-01-10T04:34:39.165Z,1004.4
2018-01-10T04:35:41.860Z,1004.3
2018-01-10T04:36:44.268Z,1004.3
2018-01-10T04:37:46.678Z,1004.3
2018-01-10T04:38:49.080Z,1004.3
2018-01-10T04:39:51.491Z,1004.3
2018-01-10T04:40:53.890Z,1004.3
2018-01-10T04:41:56.305Z,1004.4
2018-01-10T04:42:58.723Z,1004.3
2018-01-10T04:44:01.127Z,1004.3
2018-01-10T04:45:03.534Z,1004.3
2018-01-10T04:46:05.955Z,1004.3
2018-01-10T04:47:08.360Z,1004.3
2018-01-10T04:48:10.766Z,1004.3
2018-01-10T04:49:13.184Z,1004.4
2018-01-10T04:50:15.587Z,1004.4
2018-01-10T04:51:17.997Z,1004.4
2018-01-10T04:52:20.563Z,1004.4
2018-01-10T04:53:22.965Z,1004.3
2018-01-10T04:54:25.711Z,1004.3
2018-01-10T04:55:28.201Z,1004.3
2018-01-10T04:56:30.754Z,1004.3
2018-01-10T04:57:33.162Z,1004.4
2018-01-10T04:58:35.869Z,1004.4
2018-01-10T04:59:38.273Z,1004.4
2018-01-10T05:00:40.970Z,1004.4
2018-01-10T05:01:43.378Z,1004.4
2018-01-10T05:02:45.788Z,1004.5
2018-01-10T05:03:48.478Z,1004.5
2018-01-10T05:04:50.888Z,1004.5
2018-01-10T05:05:53.288Z,1004.4
2018-01-10T05:06:55.986Z,1004.5
2018-01-10T05:07:58.410Z,1004.5
2018-01-10T05:09:00.813Z,1004.4
2018-01-10T05:10:03.226Z,1004.5
2018-01-10T05:11:05.910Z,1004.5
2018-01-10T05:12:08.341Z,1004.5
2018-01-10T05:13:11.043Z,1004.5
2018-01-10T05:14:13.726Z,1004.6
2018-01-10T05:15:16.129Z,1004.6
2018-01-10T05:16:18.589Z,1004.5
2018-01-10T05:17:21.320Z,1004.6
2018-01-10T05:18:24.412Z,1004.6
2018-01-10T05:19:26.992Z,1004.6
2018-01-10T05:20:30.255Z,1004.6
2018-01-10T05:21:33.983Z,1004.6
2018-01-10T05:22:36.737Z,1004.7
2018-01-10T05:23:39.171Z,1004.6
2018-01-10T05:24:41.665Z,1004.6
2018-01-10T05:25:44.483Z,1004.6
2018-01-10T05:26:47.074Z,1004.6
2018-01-10T05:27:49.701Z,1004.6
2018-01-10T05:28:52.101Z,1004.6
2018-01-10T05:29:54.503Z,1004.6
2018-01-10T05:30:56.909Z,1004.6
2018-01-10T05:31:59.323Z,1004.6
2018-01-10T05:33:01.722Z,1004.6
2018-01-10T05:34:04.572Z,1004.6
2018-01-10T05:35:07.265Z,1004.6
2018-01-10T05:36:09.937Z,1004.6
2018-01-10T05:37:12.352Z,1004.6
2018-01-10T05:38:14.767Z,1004.6
2018-01-10T05:39:17.168Z,1004.6
2018-01-10T05:40:19.595Z,1004.7
2018-01-10T05:41:21.988Z,1004.7
2018-01-10T05:42:24.402Z,1004.7
2018-01-10T05:43:26.915Z,1004.7
2018-01-10T05:44:29.398Z,1004.7
2018-01-10T05:45:31.807Z,1004.7
2018-01-10T05:46:34.214Z,1004.7
2018-01-10T05:47:36.624Z,1004.7
2018-01-10T05:48:39.309Z,1004.7
2018-01-10T05:49:41.734Z,1004.7
2018-01-10T05:50:44.421Z,1004.7
2018-01-10T05:51:46.833Z,1004.7
2018-01-10T05:52:49.239Z,1004.7
2018-01-10T05:53:51.672Z,1004.7
2018-01-10T05:54:54.076Z,1004.7
2018-01-10T05:55:56.537Z,1004.7
2018-01-10T05:56:59.009Z,1004.7
2018-01-10T05:58:01.748Z,1004.7
2018-01-10T05:59:04.450Z,1004.7
2018-01-10T06:00:06.861Z,1004.7
2018-01-10T06:01:09.281Z,1004.7
2018-01-10T06:02:11.696Z,1004.7
2018-01-10T06:03:14.476Z,1004.7
2018-01-10T06:04:17.301Z,1004.6
2018-01-10T06:05:19.796Z,1004.5
2018-01-10T06:06:22.374Z,1004.5
2018-01-10T06:07:25.383Z,1004.5
2018-01-10T06:08:27.802Z,1004.5
2018-01-10T06:09:30.227Z,1004.5
2018-01-10T06:10:32.655Z,1004.5
2018-01-10T06:11:35.357Z,1004.4
2018-01-10T06:12:38.051Z,1004.4
2018-01-10T06:13:40.455Z,1004.3
2018-01-10T06:14:42.887Z,1004.3
2018-01-10T06:15:45.313Z,1004.3
2018-01-10T06:16:47.734Z,1004.4
2018-01-10T06:17:50.431Z,1004.4
2018-01-10T06:18:52.852Z,1004.3
2018-01-10T06:19:55.554Z,1004.3
2018-01-10T06:20:57.997Z,1004.4
2018-01-10T06:22:00.424Z,1004.4
2018-01-10T06:23:02.953Z,1004.4
2018-01-10T06:24:05.379Z,1004.4
2018-01-10T06:25:07.893Z,1004.4
2018-01-10T06:26:10.451Z,1004.4
2018-01-10T06:27:12.976Z,1004.5
2018-01-10T06:28:15.398Z,1004.5
2018-01-10T06:29:17.796Z,1004.5
2018-01-10T06:30:20.497Z,1004.5
2018-01-10T06:31:22.900Z,1004.4
2018-01-10T06:32:25.315Z,1004.4
2018-01-10T06:33:27.733Z,1004.5
2018-01-10T06:34:30.136Z,1004.4
2018-01-10T06:35:32.551Z,1004.5
2018-01-10T06:36:34.965Z,1004.4
2018-01-10T06:37:37.370Z,1004.4
2018-01-10T06:38:39.788Z,1004.4
2018-01-10T06:39:42.201Z,1004.4
2018-01-10T06:40:44.599Z,1004.4
2018-01-10T06:41:47.319Z,1004.4
2018-01-10T06:42:49.720Z,1004.4
2018-01-10T06:43:52.187Z,1004.3
2018-01-10T06:44:54.932Z,1004.3
2018-01-10T06:45:57.467Z,1004.3
2018-01-10T06:46:59.991Z,1004.4
2018-01-10T06:48:02.790Z,1004.3
2018-01-10T06:49:05.266Z,1004.3
2018-01-10T06:50:07.670Z,1004.4
2018-01-10T06:51:10.080Z,1004.3
2018-01-10T06:52:12.483Z,1004.4
2018-01-10T06:53:14.905Z,1004.4
2018-01-10T06:54:17.299Z,1004.5
2018-01-10T06:55:19.716Z,1004.4
2018-01-10T06:56:22.452Z,1004.5
2018-01-10T06:57:24.866Z,1004.4
2018-01-10T06:58:27.275Z,1004.4
2018-01-10T06:59:29.975Z,1004.4
2018-01-10T07:00:32.375Z,1004.4
2018-01-10T07:01:34.798Z,1004.4
2018-01-10T07:02:37.205Z,1004.5
2018-01-10T07:03:39.614Z,1004.4
2018-01-10T07:04:42.037Z,1004.4
2018-01-10T07:05:44.444Z,1004.5
2018-01-10T07:06:47.053Z,1004.5
2018-01-10T07:07:49.469Z,1004.5
2018-01-10T07:08:51.948Z,1004.5
2018-01-10T07:09:54.407Z,1004.6
2018-01-10T07:10:56.972Z,1004.7
2018-01-10T07:11:59.365Z,1004.7
2018-01-10T07:13:01.794Z,1004.7
2018-01-10T07:14:04.197Z,1004.6
2018-01-10T07:15:06.892Z,1004.6
2018-01-10T07:16:09.316Z,1004.6
2018-01-10T07:17:11.726Z,1004.7
2018-01-10T07:18:14.705Z,1004.7
2018-01-10T07:19:17.104Z,1004.7
2018-01-10T07:20:19.513Z,1004.7
2018-01-10T07:21:21.926Z,1004.6
2018-01-10T07:22:24.635Z,1004.6
2018-01-10T07:23:27.050Z,1004.7
2018-01-10T07:24:29.457Z,1004.7
2018-01-10T07:25:31.872Z,1004.7
2018-01-10T07:26:34.301Z,1004.7
2018-01-10T07:27:36.722Z,1004.7
2018-01-10T07:28:39.259Z,1004.7
2018-01-10T07:29:41.751Z,1004.7
2018-01-10T07:30:44.189Z,1004.6
2018-01-10T07:31:46.599Z,1004.7
2018-01-10T07:32:49.297Z,1004.7
2018-01-10T07:33:51.696Z,1004.6
2018-01-10T07:34:54.103Z,1004.8
2018-01-10T07:35:56.812Z,1004.8
2018-01-10T07:36:59.492Z,1004.7
2018-01-10T07:38:01.905Z,1004.8
2018-01-10T07:39:04.309Z,1004.8
2018-01-10T07:40:06.722Z,1004.9
2018-01-10T07:41:09.136Z,1004.8
2018-01-10T07:42:11.552Z,1004.8
2018-01-10T07:43:13.947Z,1004.8
2018-01-10T07:44:16.650Z,1004.8
2018-01-10T07:45:19.346Z,1004.7
2018-01-10T07:46:21.763Z,1004.8
2018-01-10T07:47:24.167Z,1004.8
2018-01-10T07:48:26.719Z,1004.8
2018-01-10T07:49:29.061Z,1004.8
2018-01-10T07:50:31.522Z,1004.8
2018-01-10T07:51:34.328Z,1004.8
2018-01-10T07:52:36.871Z,1004.8
2018-01-10T07:53:39.271Z,1004.8
2018-01-10T07:54:41.691Z,1004.9
2018-01-10T07:55:44.383Z,1004.8
2018-01-10T07:56:46.786Z,1004.9
2018-01-10T07:57:49.195Z,1005
2018-01-10T07:58:51.601Z,1004.9
2018-01-10T07:59:54.288Z,1005
2018-01-10T08:00:56.710Z,1005
2018-01-10T08:01:59.482Z,1004.9
2018-01-10T08:03:02.263Z,1004.9
2018-01-10T08:04:05.041Z,1004.9
2018-01-10T08:05:08.434Z,1004.9
2018-01-10T08:06:10.954Z,1004.9
2018-01-10T08:07:13.740Z,1004.9
2018-01-10T08:08:16.239Z,1004.9
2018-01-10T08:09:18.664Z,1005
2018-01-10T08:10:21.071Z,1005
2018-01-10T08:11:23.478Z,1005
2018-01-10T08:12:25.888Z,1005
2018-01-10T08:13:28.297Z,1005
2018-01-10T08:14:30.706Z,1005
2018-01-10T08:15:33.389Z,1005
2018-01-10T08:16:36.075Z,1005
2018-01-10T08:17:39.057Z,1005
2018-01-10T08:18:41.462Z,1005
2018-01-10T08:19:43.861Z,1005
2018-01-10T08:20:46.282Z,1005.1
2018-01-10T08:21:48.688Z,1005
2018-01-10T08:22:51.106Z,1005
2018-01-10T08:23:53.512Z,1005
2018-01-10T08:24:55.921Z,1005.1
2018-01-10T08:25:58.385Z,1005.1
2018-01-10T08:27:00.799Z,1005.1
2018-01-10T08:28:03.348Z,1005.1
2018-01-10T08:29:05.819Z,1005.2
2018-01-10T08:30:08.362Z,1005.2
2018-01-10T08:31:10.775Z,1005.2
2018-01-10T08:32:13.176Z,1005.2
2018-01-10T08:33:15.589Z,1005.1
2018-01-10T08:34:17.987Z,1005.2
2018-01-10T08:35:20.401Z,1005.3
2018-01-10T08:36:22.810Z,1005.2
2018-01-10T08:37:25.217Z,1005.2
2018-01-10T08:38:27.912Z,1005.2
2018-01-10T08:39:30.614Z,1005.3
2018-01-10T08:40:33.024Z,1005.2
2018-01-10T08:41:35.443Z,1005.3
2018-01-10T08:42:37.836Z,1005.2
2018-01-10T08:43:40.244Z,1005.2
2018-01-10T08:44:42.651Z,1005.3
2018-01-10T08:45:45.342Z,1005.2
2018-01-10T08:46:48.063Z,1005.3
2018-01-10T08:47:50.473Z,1005.2
2018-01-10T08:48:53.164Z,1005.2
2018-01-10T08:49:55.580Z,1005.2
2018-01-10T08:50:57.980Z,1005.1
2018-01-10T08:52:00.405Z,1005.1
2018-01-10T08:53:03.136Z,1005.2
2018-01-10T08:54:05.500Z,1005.1
2018-01-10T08:55:08.217Z,1005.2
2018-01-10T08:56:10.626Z,1005.2
2018-01-10T08:57:13.328Z,1005.2
2018-01-10T08:58:16.075Z,1005.2
2018-01-10T08:59:18.479Z,1005.1
2018-01-10T09:00:20.889Z,1005.1
2018-01-10T09:01:23.297Z,1005.1
2018-01-10T09:02:25.715Z,1005.1
2018-01-10T09:03:28.124Z,1005.1
2018-01-10T09:04:30.535Z,1005.1
2018-01-10T09:05:33.221Z,1005
2018-01-10T09:06:35.931Z,1005.1
2018-01-10T09:07:38.339Z,1005
2018-01-10T09:08:40.753Z,1005
2018-01-10T09:09:43.153Z,1005
2018-01-10T09:10:45.567Z,1005.1
2018-01-10T09:11:48.285Z,1005
2018-01-10T09:12:50.695Z,1005
2018-01-10T09:13:53.106Z,1005
2018-01-10T09:14:55.524Z,1005
2018-01-10T09:15:58.238Z,1005
2018-01-10T09:17:00.653Z,1005
2018-01-10T09:18:03.075Z,1005
2018-01-10T09:19:05.489Z,1005.1
2018-01-10T09:20:08.184Z,1005
2018-01-10T09:21:10.886Z,1005
2018-01-10T09:22:13.293Z,1005.1
2018-01-10T09:23:15.707Z,1005.1
2018-01-10T09:24:18.121Z,1005.1
2018-01-10T09:25:20.517Z,1005.1
2018-01-10T09:26:22.939Z,1005.1
2018-01-10T09:27:25.352Z,1005.1
2018-01-10T09:28:27.756Z,1005.2
2018-01-10T09:29:30.175Z,1005.1
2018-01-10T09:30:32.869Z,1005
2018-01-10T09:31:35.558Z,1005.1
2018-01-10T09:32:37.986Z,1005.1
2018-01-10T09:33:40.681Z,1005
2018-01-10T09:34:43.657Z,1005.1
2018-01-10T09:35:46.081Z,1005.1
2018-01-10T09:36:48.487Z,1005
2018-01-10T09:37:50.897Z,1005.1
2018-01-10T09:38:53.590Z,1005
2018-01-10T09:39:55.991Z,1005.1
2018-01-10T09:40:58.407Z,1005.1
2018-01-10T09:42:00.816Z,1005.1
2018-01-10T09:43:03.517Z,1005.1
2018-01-10T09:44:06.512Z,1005.2
2018-01-10T09:45:08.923Z,1005.2
2018-01-10T09:46:11.612Z,1005.2
2018-01-10T09:47:14.016Z,1005.2
2018-01-10T09:48:16.704Z,1005.2
2018-01-10T09:49:19.121Z,1005.2
2018-01-10T09:50:21.831Z,1005.2
2018-01-10T09:51:24.246Z,1005.2
2018-01-10T09:52:26.661Z,1005.2
2018-01-10T09:53:29.072Z,1005.2
2018-01-10T09:54:31.787Z,1005.2
2018-01-10T09:55:34.202Z,1005
2018-01-10T09:56:36.612Z,1005.1
2018-01-10T09:57:39.022Z,1005.1
2018-01-10T09:58:41.437Z,1005
2018-01-10T09:59:43.847Z,1005.1
2018-01-10T10:00:46.260Z,1005
2018-01-10T10:01:48.853Z,1005
2018-01-10T10:02:51.265Z,1005
2018-01-10T10:03:53.679Z,1005
2018-01-10T10:04:56.086Z,1005
2018-01-10T10:05:58.556Z,1005
2018-01-10T10:07:00.923Z,1005
2018-01-10T10:08:04.194Z,1005
2018-01-10T10:09:08.771Z,1005.1
2018-01-10T10:10:11.692Z,1005.1
2018-01-10T10:11:14.449Z,1005.1
2018-01-10T10:12:17.565Z,1005.1
2018-01-10T10:13:20.490Z,1005.1
2018-01-10T10:14:24.073Z,1005.1
2018-01-10T10:15:27.106Z,1005
2018-01-10T10:16:30.848Z,1005
2018-01-10T10:17:34.046Z,1005
2018-01-10T10:18:36.710Z,1005.1
2018-01-10T10:19:39.179Z,1005
2018-01-10T10:20:41.588Z,1005
2018-01-10T10:21:43.997Z,1005
2018-01-10T10:22:46.412Z,1005
2018-01-10T10:23:49.114Z,1005
2018-01-10T10:24:51.511Z,1005
2018-01-10T10:25:53.917Z,1005.1
2018-01-10T10:26:56.328Z,1005
2018-01-10T10:27:58.741Z,1005
2018-01-10T10:29:01.155Z,1005
2018-01-10T10:30:03.566Z,1005
2018-01-10T10:31:05.974Z,1005
2018-01-10T10:32:08.394Z,1004.9
2018-01-10T10:33:11.085Z,1004.9
2018-01-10T10:34:13.502Z,1004.9
2018-01-10T10:35:15.914Z,1004.9
2018-01-10T10:36:18.317Z,1004.8
2018-01-10T10:37:21.016Z,1004.8
2018-01-10T10:38:23.440Z,1004.8
2018-01-10T10:39:25.835Z,1004.8
2018-01-10T10:40:28.252Z,1004.7
2018-01-10T10:41:30.672Z,1004.7
2018-01-10T10:42:33.086Z,1004.7
2018-01-10T10:43:35.501Z,1004.7
2018-01-10T10:44:37.921Z,1004.7
2018-01-10T10:45:40.331Z,1004.7
2018-01-10T10:46:42.748Z,1004.6
2018-01-10T10:47:45.440Z,1004.6
2018-01-10T10:48:47.869Z,1004.6
2018-01-10T10:49:50.289Z,1004.6
2018-01-10T10:50:52.987Z,1004.5
2018-01-10T10:51:55.697Z,1004.5
2018-01-10T10:52:58.115Z,1004.5
2018-01-10T10:54:00.815Z,1004.5
2018-01-10T10:55:03.230Z,1004.5
2018-01-10T10:56:05.634Z,1004.5
2018-01-10T10:57:08.614Z,1004.4
2018-01-10T10:58:11.054Z,1004.4
2018-01-10T10:59:13.469Z,1004.4
2018-01-10T11:00:15.877Z,1004.4
2018-01-10T11:01:18.293Z,1004.4
2018-01-10T11:02:20.984Z,1004.4
2018-01-10T11:03:23.415Z,1004.4
2018-01-10T11:04:25.831Z,1004.4
2018-01-10T11:05:28.237Z,1004.4
2018-01-10T11:06:30.664Z,1004.3
2018-01-10T11:07:33.091Z,1004.4
2018-01-10T11:08:35.508Z,1004.4
2018-01-10T11:09:37.939Z,1004.3
2018-01-10T11:10:40.632Z,1004.4
2018-01-10T11:11:43.054Z,1004.3
2018-01-10T11:12:45.493Z,1004.4
2018-01-10T11:13:48.182Z,1004.4
2018-01-10T11:14:50.602Z,1004.4
2018-01-10T11:15:53.013Z,1004.4
2018-01-10T11:16:55.440Z,1004.4
2018-01-10T11:17:57.857Z,1004.4
2018-01-10T11:19:00.572Z,1004.4
2018-01-10T11:20:02.979Z,1004.4
2018-01-10T11:21:05.410Z,1004.4
2018-01-10T11:22:08.101Z,1004.4
2018-01-10T11:23:10.516Z,1004.4
2018-01-10T11:24:12.932Z,1004.4
2018-01-10T11:25:15.634Z,1004.4
2018-01-10T11:26:18.048Z,1004.3
2018-01-10T11:27:20.768Z,1004.4
2018-01-10T11:28:23.483Z,1004.4
2018-01-10T11:29:25.908Z,1004.4
2018-01-10T11:30:28.629Z,1004.4
2018-01-10T11:31:31.323Z,1004.4
2018-01-10T11:32:33.747Z,1004.4
2018-01-10T11:33:36.176Z,1004.4
2018-01-10T11:34:38.592Z,1004.3
2018-01-10T11:35:41.016Z,1004.3
2018-01-10T11:36:43.715Z,1004.4
2018-01-10T11:37:46.130Z,1004.4
2018-01-10T11:38:49.142Z,1004.4
2018-01-10T11:39:51.840Z,1004.4
2018-01-10T11:40:54.267Z,1004.4
2018-01-10T11:41:56.691Z,1004.4
2018-01-10T11:42:59.106Z,1004.4
2018-01-10T11:44:01.518Z,1004.4
2018-01-10T11:45:03.933Z,1004.4
2018-01-10T11:46:06.371Z,1004.4
2018-01-10T11:47:08.794Z,1004.3
2018-01-10T11:48:11.490Z,1004.4
2018-01-10T11:49:13.911Z,1004.4
2018-01-10T11:50:16.323Z,1004.4
2018-01-10T11:51:18.746Z,1004.4
2018-01-10T11:52:21.165Z,1004.4
2018-01-10T11:53:23.578Z,1004.3
2018-01-10T11:54:25.996Z,1004.3
2018-01-10T11:55:28.425Z,1004.2
2018-01-10T11:56:30.843Z,1004.3
2018-01-10T11:57:33.264Z,1004.3
2018-01-10T11:58:35.973Z,1004.3
2018-01-10T11:59:38.399Z,1004.3
2018-01-10T12:00:40.820Z,1004.3
2018-01-10T12:01:43.250Z,1004.3
2018-01-10T12:02:45.672Z,1004.3
2018-01-10T12:03:48.109Z,1004.3
2018-01-10T12:04:50.530Z,1004.3
2018-01-10T12:05:52.943Z,1004.3
2018-01-10T12:06:55.370Z,1004.3
2018-01-10T12:07:57.791Z,1004.3
2018-01-10T12:09:00.509Z,1004.2
2018-01-10T12:10:02.945Z,1004.3
2018-01-10T12:11:05.356Z,1004.3
2018-01-10T12:12:07.773Z,1004.2
2018-01-10T12:13:10.202Z,1004.2
2018-01-10T12:14:12.623Z,1004.3
2018-01-10T12:15:15.040Z,1004.3
2018-01-10T12:16:17.469Z,1004.3
2018-01-10T12:17:19.900Z,1004.3
2018-01-10T12:18:22.330Z,1004.3
2018-01-10T12:19:24.737Z,1004.3
2018-01-10T12:20:27.158Z,1004.2
2018-01-10T12:21:29.580Z,1004.2
2018-01-10T12:22:32.010Z,1004.2
2018-01-10T12:23:34.722Z,1004.2
2018-01-10T12:24:37.146Z,1004.1
2018-01-10T12:25:39.569Z,1004.2
2018-01-10T12:26:42.004Z,1004.2
2018-01-10T12:27:44.427Z,1004.2
2018-01-10T12:28:46.846Z,1004.2
2018-01-10T12:29:49.279Z,1004.2
2018-01-10T12:30:52.263Z,1004.2
2018-01-10T12:31:54.687Z,1004.3
2018-01-10T12:32:57.388Z,1004.3
2018-01-10T12:33:59.801Z,1004.3
2018-01-10T12:35:02.224Z,1004.3
2018-01-10T12:36:04.933Z,1004.3
2018-01-10T12:37:07.351Z,1004.2
2018-01-10T12:38:09.787Z,1004.3
2018-01-10T12:39:12.209Z,1004.3
2018-01-10T12:40:14.635Z,1004.3
2018-01-10T12:41:17.623Z,1004.3
2018-01-10T12:42:20.341Z,1004.3
2018-01-10T12:43:22.748Z,1004.3
2018-01-10T12:44:25.175Z,1004.3
2018-01-10T12:45:27.601Z,1004.3
2018-01-10T12:46:30.308Z,1004.3
2018-01-10T12:47:33.031Z,1004.3
2018-01-10T12:48:35.455Z,1004.2
2018-01-10T12:49:37.872Z,1004.3
2018-01-10T12:50:40.309Z,1004.3
2018-01-10T12:51:43.008Z,1004.2
2018-01-10T12:52:45.430Z,1004.2
2018-01-10T12:53:47.851Z,1004.2
2018-01-10T12:54:50.847Z,1004.3
2018-01-10T12:55:53.267Z,1004.3
2018-01-10T12:56:55.686Z,1004.3
2018-01-10T12:57:58.398Z,1004.3
2018-01-10T12:59:00.810Z,1004.3
2018-01-10T13:00:03.263Z,1004.3
2018-01-10T13:01:05.675Z,1004.3
2018-01-10T13:02:08.111Z,1004.3
2018-01-10T13:03:10.572Z,1004.3
2018-01-10T13:04:12.991Z,1004.3
2018-01-10T13:05:15.433Z,1004.3
2018-01-10T13:06:17.856Z,1004.3
2018-01-10T13:07:20.297Z,1004.3